createdAt,value
2022-12-31T05:02:31.871Z,13.08
2022-12-31T05:06:43.451Z,13.09
2022-12-31T05:10:54.941Z,13.12
2022-12-31T05:15:07.992Z,13.13
2022-12-31T05:19:19.580Z,13.07
2022-12-31T05:23:31.058Z,13.10
2022-12-31T05:27:43.663Z,13.09
2022-12-31T05:31:55.182Z,13.12
2022-12-31T05:36:06.967Z,13.04
2022-12-31T05:40:18.854Z,13.11
2022-12-31T05:44:30.329Z,13.03
2022-12-31T05:48:41.837Z,13.00
2022-12-31T05:52:53.321Z,12.95
2022-12-31T05:57:05.216Z,12.95
2022-12-31T06:01:16.788Z,12.93
2022-12-31T06:05:28.347Z,12.90
2022-12-31T06:09:39.862Z,12.88
2022-12-31T06:13:51.553Z,12.91
2022-12-31T06:18:04.345Z,12.85
2022-12-31T06:22:16.217Z,12.85
2022-12-31T06:26:28.045Z,12.85
2022-12-31T06:30:39.552Z,12.78
2022-12-31T06:34:51.048Z,12.79
2022-12-31T06:39:02.538Z,12.67
2022-12-31T06:43:14.034Z,12.56
2022-12-31T06:47:25.905Z,12.59
2022-12-31T06:51:38.051Z,12.47
2022-12-31T06:55:50.131Z,12.47
2022-12-31T07:00:01.951Z,12.38
2022-12-31T07:04:34.590Z,12.33
2022-12-31T07:09:06.936Z,12.34
2022-12-31T07:13:39.615Z,12.31
2022-12-31T07:18:13.772Z,12.25
2022-12-31T07:22:26.557Z,12.27
2022-12-31T07:26:52.563Z,12.18
2022-12-31T07:31:32.659Z,12.20
2022-12-31T07:36:34.273Z,12.20
2022-12-31T07:41:13.581Z,12.21
2022-12-31T07:45:29.570Z,12.24
2022-12-31T07:49:42.822Z,12.23
2022-12-31T07:53:54.291Z,12.28
2022-12-31T07:58:22.233Z,12.32
2022-12-31T08:03:11.099Z,12.32
2022-12-31T08:08:00.309Z,12.44
2022-12-31T08:12:11.920Z,12.42
2022-12-31T08:16:23.667Z,12.38
2022-12-31T08:21:00.880Z,12.41
2022-12-31T08:25:27.481Z,12.38
2022-12-31T08:29:46.505Z,12.40
2022-12-31T08:34:31.699Z,12.44
2022-12-31T08:39:02.139Z,12.36
2022-12-31T08:43:32.887Z,12.35
2022-12-31T08:48:04.561Z,12.35
2022-12-31T08:52:23.140Z,12.41
2022-12-31T08:56:43.703Z,12.41
2022-12-31T09:00:59.234Z,12.40
2022-12-31T09:05:32.489Z,12.50
2022-12-31T09:10:02.884Z,12.55
2022-12-31T09:14:45.045Z,12.59
2022-12-31T09:18:56.557Z,12.67
2022-12-31T09:23:08.259Z,12.77
2022-12-31T09:27:54.614Z,12.84
2022-12-31T09:32:06.069Z,12.91
2022-12-31T09:36:34.344Z,13.04
2022-12-31T09:41:22.918Z,13.14
2022-12-31T09:46:08.781Z,13.19
2022-12-31T09:50:35.578Z,13.25
2022-12-31T09:55:17.906Z,13.28
2022-12-31T10:00:01.356Z,13.34
2022-12-31T10:04:58.149Z,13.42
2022-12-31T10:09:40.068Z,13.48
2022-12-31T10:14:13.537Z,13.62
2022-12-31T10:18:54.513Z,13.74
2022-12-31T10:23:35.271Z,13.78
2022-12-31T10:27:59.314Z,13.94
2022-12-31T10:32:31.722Z,13.94
2022-12-31T10:36:53.289Z,13.96
2022-12-31T10:41:38.553Z,13.91
2022-12-31T10:46:34.834Z,13.98
2022-12-31T10:51:11.200Z,14.04
2022-12-31T10:55:55.637Z,14.02
2022-12-31T11:00:16.252Z,14.12
2022-12-31T11:04:27.693Z,14.22
2022-12-31T11:09:10.049Z,14.21
2022-12-31T11:14:18.884Z,14.35
2022-12-31T11:18:39.919Z,14.54
2022-12-31T11:23:09.118Z,14.76
2022-12-31T11:27:49.292Z,14.91
2022-12-31T11:32:16.927Z,14.99
2022-12-31T11:37:02.599Z,15.05
2022-12-31T11:41:19.964Z,15.23
2022-12-31T11:45:50.753Z,15.25
2022-12-31T11:50:27.346Z,15.28
2022-12-31T11:55:12.697Z,15.35
2022-12-31T11:59:24.338Z,15.23
2022-12-31T12:03:42.299Z,15.23
2022-12-31T12:07:55.689Z,15.11
2022-12-31T12:12:07.262Z,15.03
2022-12-31T12:16:21.301Z,14.96
2022-12-31T12:20:37.089Z,14.99
2022-12-31T12:25:13.307Z,15.09
2022-12-31T12:29:31.189Z,15.15
2022-12-31T12:33:45.473Z,15.22
2022-12-31T12:38:05.680Z,15.23
2022-12-31T12:42:17.175Z,15.26
2022-12-31T12:46:49.163Z,15.26
2022-12-31T12:51:01.516Z,15.08
2022-12-31T12:55:29.607Z,15.11
2022-12-31T12:59:51.442Z,15.08
2022-12-31T13:04:33.522Z,15.16
2022-12-31T13:09:18.609Z,15.15
2022-12-31T13:13:45.014Z,15.25
2022-12-31T13:18:22.800Z,15.14
2022-12-31T13:22:47.861Z,15.11
2022-12-31T13:27:10.064Z,15.11
2022-12-31T13:31:31.791Z,15.05
2022-12-31T13:35:52.124Z,15.05
2022-12-31T13:40:17.267Z,15.01
2022-12-31T13:44:36.248Z,14.99
2022-12-31T13:48:56.106Z,14.98
2022-12-31T13:53:25.804Z,14.99
2022-12-31T13:57:54.676Z,14.96
2022-12-31T14:02:06.199Z,14.88
2022-12-31T14:06:27.214Z,14.80
2022-12-31T14:11:01.759Z,14.79
2022-12-31T14:15:16.126Z,14.74
2022-12-31T14:19:52.457Z,14.74
2022-12-31T14:24:14.342Z,14.74
2022-12-31T14:28:46.968Z,14.61
2022-12-31T14:33:22.340Z,14.58
2022-12-31T14:37:52.281Z,14.52
2022-12-31T14:42:33.284Z,14.44
2022-12-31T14:47:22.790Z,14.42
2022-12-31T14:51:36.473Z,14.34
2022-12-31T14:55:57.871Z,14.34
2022-12-31T15:00:24.855Z,14.29
2022-12-31T15:04:44.743Z,14.17
2022-12-31T15:08:56.179Z,14.12
2022-12-31T15:13:41.243Z,14.07
2022-12-31T15:17:52.641Z,13.98
2022-12-31T15:22:20.458Z,13.91
2022-12-31T15:26:32.404Z,13.91
2022-12-31T15:30:47.123Z,13.80
2022-12-31T15:35:21.523Z,13.85
2022-12-31T15:39:32.945Z,13.80
2022-12-31T15:43:57.555Z,13.76
2022-12-31T15:48:17.931Z,13.66
2022-12-31T15:52:59.904Z,13.68
2022-12-31T15:57:20.810Z,13.62
2022-12-31T16:01:34.881Z,13.61
2022-12-31T16:05:46.437Z,13.60
2022-12-31T16:10:00.127Z,13.61
2022-12-31T16:14:20.250Z,13.61
2022-12-31T16:18:43.464Z,13.60
2022-12-31T16:22:58.913Z,13.66
2022-12-31T16:27:16.283Z,13.68
2022-12-31T16:31:29.990Z,13.75
2022-12-31T16:35:41.578Z,13.77
2022-12-31T16:39:56.022Z,13.76
2022-12-31T16:44:25.225Z,13.74
2022-12-31T16:48:37.467Z,13.72
2022-12-31T16:52:53.955Z,13.75
2022-12-31T16:57:06.356Z,13.77
2022-12-31T17:01:22.579Z,13.76
2022-12-31T17:05:52.687Z,13.70
2022-12-31T17:10:07.203Z,13.72
2022-12-31T17:14:23.189Z,13.59
2022-12-31T17:18:38.621Z,13.59
2022-12-31T17:22:52.642Z,13.56
2022-12-31T17:27:07.328Z,13.48
2022-12-31T17:31:28.940Z,13.51
2022-12-31T17:35:42.740Z,13.45
2022-12-31T17:40:24.627Z,13.42
2022-12-31T17:44:38.023Z,13.47
2022-12-31T17:48:53.828Z,13.44
2022-12-31T17:53:12.750Z,13.31
2022-12-31T17:57:27.512Z,13.37
2022-12-31T18:01:39.253Z,13.46
2022-12-31T18:05:51.195Z,13.50
2022-12-31T18:10:02.672Z,13.46
2022-12-31T18:14:15.631Z,13.51
2022-12-31T18:18:29.497Z,13.55
2022-12-31T18:22:43.235Z,13.51
2022-12-31T18:26:55.161Z,13.48
2022-12-31T18:31:06.995Z,13.41
2022-12-31T18:35:49.006Z,13.38
2022-12-31T18:39:52.226Z,13.29
2022-12-31T18:44:03.833Z,13.35
2022-12-31T18:48:16.523Z,13.29
2022-12-31T18:52:28.003Z,13.29
2022-12-31T18:56:44.863Z,13.22
2022-12-31T19:00:58.757Z,13.22
2022-12-31T19:05:29.170Z,13.17
2022-12-31T19:09:45.737Z,13.14
2022-12-31T19:13:57.946Z,13.20
2022-12-31T19:18:09.682Z,13.21
2022-12-31T19:22:21.204Z,13.11
2022-12-31T19:26:34.773Z,13.06
2022-12-31T19:30:49.130Z,13.12
2022-12-31T19:35:00.686Z,13.13
2022-12-31T19:39:18.559Z,12.93
2022-12-31T19:43:30.191Z,12.90
2022-12-31T19:47:41.842Z,12.95
2022-12-31T19:51:53.369Z,12.90
2022-12-31T19:56:05.609Z,12.85
2022-12-31T20:00:18.426Z,12.86
2022-12-31T20:04:29.981Z,12.89
2022-12-31T20:08:46.396Z,12.80
2022-12-31T20:12:57.891Z,12.86
2022-12-31T20:17:09.489Z,12.81
2022-12-31T20:21:23.362Z,12.82
2022-12-31T20:25:34.852Z,12.77
2022-12-31T20:29:46.308Z,12.67
2022-12-31T20:33:57.906Z,12.71
2022-12-31T20:38:09.403Z,12.72
2022-12-31T20:42:20.923Z,12.70
2022-12-31T20:46:32.676Z,12.72
2022-12-31T20:50:54.214Z,12.76
2022-12-31T20:55:06.191Z,12.82
2022-12-31T20:59:17.705Z,12.73
2022-12-31T21:08:00.648Z,12.66
2022-12-31T21:12:30.739Z,12.57
2022-12-31T21:16:42.232Z,12.61
2022-12-31T21:20:53.721Z,12.62
2022-12-31T21:25:05.822Z,12.61
2022-12-31T21:29:17.315Z,12.71
2022-12-31T21:33:29.052Z,12.66
2022-12-31T21:37:59.155Z,12.79
2022-12-31T21:42:12.350Z,12.65
2022-12-31T21:46:24.057Z,12.73
2022-12-31T21:50:35.667Z,12.71
2022-12-31T21:55:05.776Z,12.64
2022-12-31T21:59:36.726Z,12.55
2022-12-31T22:03:51.060Z,12.62
2022-12-31T22:08:02.880Z,12.70
2022-12-31T22:12:14.445Z,12.58
2022-12-31T22:16:25.991Z,12.55
2022-12-31T22:20:37.545Z,12.69
2022-12-31T22:24:49.053Z,12.57
2022-12-31T22:29:00.561Z,12.57
